• Join FlightAware (Why Join?)
  • Login
  • US Flag 
06:14AM EST


 

Airport Tracker/Info


-or-


 

Live Flight TrackerFlight Track Log ✈ SWA59 ✈ 23-Apr-2013 ✈ KPHL - KSTL

Flight Track Log - Related Links

Times and Time Zones

All times are in EDT time to prevent confusion due to time zone crossing. See the SWA59 flight status page for this flight to view local times or setup timezone preferences in your user account.

Time Position Orientation Groundspeed Altitude Reporting Facility
EDT Latitude Longitude Course Direction KTS MPH feet Rate Location/Type
05:37PM 39.8783 -75.2133 70° East 148 170 1,300  Level FAA TRACON SMA TRACON (SMA)
05:37PM 39.8833 -75.1958 70° East 160 184 1,800 1,920 Climbing FAA TRACON SMA TRACON (SMA)
05:37PM 39.8892 -75.1747 70° East 190 219 2,600 2,700 Climbing FAA TRACON SMA TRACON (SMA)
05:38PM 39.8956 -75.1547 67° East 189 217 3,600 3,120 Climbing FAA TRACON SMA TRACON (SMA)
05:38PM 39.9050 -75.1289 65° Northeast 213 245 4,700 3,120 Climbing FAA TRACON SMA TRACON (SMA)
05:38PM 39.9192 -75.1183 30° Northeast 213 245 5,700 3,300 Climbing FAA TRACON SMA TRACON (SMA)
05:39PM 39.9408 -75.1347 330° Northwest 225 259 6,900 3,120 Climbing FAA TRACON SMA TRACON (SMA)
05:39PM 39.9442 -75.1631 279° West 263 303 7,800 3,120 Climbing FAA TRACON SMA TRACON (SMA)
05:39PM 39.9414 -75.1922 263° West 268 308 9,000 3,120 Climbing FAA TRACON SMA TRACON (SMA)
05:40PM 39.9392 -75.2300 266° West 275 316 9,900 1,620 Climbing FAA TRACON SMA TRACON (SMA)
05:40PM 39.9378 -75.2603 267° West 285 328 10,100 120 Climbing FAA TRACON SMA TRACON (SMA)
05:40PM 39.9367 -75.2936 268° West 307 353 10,000 -180 Descending FAA TRACON SMA TRACON (SMA)
05:41PM 39.9347 -75.3386 267° West 323 372 10,000  Level FAA TRACON SMA TRACON (SMA)
05:41PM 39.9333 -75.3622 266° West 323 372 10,000  Level FAA TRACON SMA TRACON (SMA)
05:41PM 39.9314 -75.4097 267° West 322 371 10,000  Level FAA TRACON SMA TRACON (SMA)
05:42PM 39.9292 -75.4533 266° West 322 371 10,000  Level FAA TRACON SMA TRACON (SMA)
05:42PM 39.9275 -75.4908 267° West 323 372 10,000 300 Level FAA TRACON SMA TRACON (SMA)
05:42PM 39.9250 -75.5353 266° West 324 373 10,200 1,500 Climbing FAA TRACON SMA TRACON (SMA)
05:43PM 39.9231 -75.5714 266° West 325 374 11,000 2,820 Climbing FAA TRACON SMA TRACON (SMA)
05:43PM 39.9211 -75.6081 266° West 328 377 12,100 3,720 Climbing FAA TRACON SMA TRACON (SMA)
05:43PM 39.9189 -75.6550 266° West 336 387 13,500 3,900 Climbing FAA TRACON SMA TRACON (SMA)
05:44PM 39.9172 -75.6917 267° West 339 390 14,700 3,420 Climbing FAA TRACON SMA TRACON (SMA)
05:44PM 39.9164 -75.7308 268° West 341 392 15,800 3,300 Climbing FAA TRACON SMA TRACON (SMA)
05:44PM 39.9158 -75.7797 269° West 348 400 16,900 3,000 Climbing FAA TRACON SMA TRACON (SMA)
05:45PM 39.9147 -75.8200 268° West 358 412 17,800 1,800 Climbing FAA TRACON SMA TRACON (SMA)
05:45PM 39.9136 -75.8494 267° West 366 421 18,100 300 Climbing FAA TRACON SMA TRACON (SMA)
05:46PM 39.9136 -75.8494 288° West 366 421 18,100 2,520 Level FAA TRACON SMA TRACON (SMA)
05:48PM 39.9081 -76.2294 269° West 394 453 25,000 2,280 Climbing New York Center
05:49PM 39.9089 -76.3892 270° West 408 470 25,000  Level New York Center
05:50PM 39.9211 -76.5256 277° West 408 470 25,000  Level New York Center
05:51PM 39.9261 -76.6750 273° West 413 475 25,000  Level New York Center
05:52PM 39.9311 -76.8242 273° West 418 481 25,000  Level New York Center
05:53PM 39.9378 -76.9739 273° West 418 481 25,000 1,080 Level New York Center
05:54PM 39.9444 -77.1261 273° West 423 487 27,200 2,820 Climbing New York Center
05:55PM 39.9492 -77.2700 272° West 423 487 30,700 1,740 Climbing New York Center
05:57PM 39.9594 -77.5333 273° West 376 433 32,500 1,080 Climbing Cleveland Center
05:58PM 39.9631 -77.6686 272° West 370 426 34,000 1,200 Climbing Cleveland Center
05:59PM 39.9686 -77.8036 273° West 370 426 35,000 1,320 Climbing Cleveland Center
06:00PM 39.9739 -77.9389 273° West 370 426 36,700 1,200 Climbing Cleveland Center
06:01PM 39.9772 -78.0797 272° West 376 433 37,500 900 Climbing Cleveland Center
06:02PM 39.9822 -78.2206 273° West 389 448 38,500 720 Climbing Cleveland Center
06:03PM 39.9792 -78.3750 269° West 402 463 39,000 660 Climbing Cleveland Center
06:04PM 39.9839 -78.5239 272° West 414 476 39,900 480 Climbing Cleveland Center
06:05PM 39.9886 -78.6756 272° West 419 482 40,000  Climbing Cleveland Center
06:06PM 39.9911 -78.8297 271° West 419 482 40,000  Level Cleveland Center
06:07PM 39.9975 -78.9814 273° West 419 482 40,000  Level Cleveland Center
06:08PM 40.0017 -79.1331 272° West 419 482 40,000  Level Cleveland Center
06:09PM 40.0036 -79.2875 271° West 419 482 40,000  Level Cleveland Center
06:10PM 40.0053 -79.4394 271° West 419 482 40,000  Level Cleveland Center
06:11PM 40.0086 -79.6019 272° West 419 482 40,000 -540 Level Cleveland Center
06:12PM 40.0100 -79.7483 271° West 419 482 39,000 -960 Descending Cleveland Center
06:13PM 40.0128 -79.8811 272° West 400 460 38,100 -540 Descending Cleveland Center
06:14PM 40.0136 -80.0111 271° West 374 430 38,000 -60 Descending Cleveland Center
06:15PM 40.0164 -80.1411 272° West 368 423 38,000  Level Cleveland Center
06:16PM 40.0167 -80.2742 270° West 368 423 38,000  Level Cleveland Center
06:17PM 40.0169 -80.4042 270° West 368 423 38,000  Level Cleveland Center
06:18PM 40.0172 -80.5397 270° West 368 423 38,000  Level Cleveland Center
06:20PM 40.0164 -80.8222 270° West 367 422 38,000  Level Indianapolis Center
06:21PM 40.0150 -80.9553 269° West 367 422 38,000  Level Indianapolis Center
06:22PM 40.0133 -81.0889 269° West 366 421 38,000  Level Indianapolis Center
06:23PM 40.0108 -81.2228 269° West 366 421 38,000  Level Indianapolis Center
06:24PM 40.0081 -81.3589 269° West 370 426 38,000  Level Indianapolis Center
06:25PM 40.0056 -81.4928 269° West 368 423 38,000  Level Indianapolis Center
06:26PM 40.0017 -81.6508 268° West 370 426 38,000  Level Indianapolis Center
06:27PM 40.0003 -81.7828 269° West 369 425 38,000  Level Indianapolis Center
06:28PM 39.9964 -81.9175 268° West 371 427 38,000  Level Indianapolis Center
06:29PM 39.9936 -82.0525 269° West 367 422 38,000  Level Indianapolis Center
06:31PM 39.9878 -82.3222 268° West 369 425 38,000  Level Indianapolis Center
06:32PM 39.9836 -82.4786 268° West 367 422 38,000  Level Indianapolis Center
06:33PM 39.9792 -82.6136 268° West 368 423 38,000  Level Indianapolis Center
06:34PM 39.9758 -82.7494 268° West 371 427 38,000  Level Indianapolis Center
06:35PM 39.9717 -82.8836 268° West 370 426 38,000  Level Indianapolis Center
06:36PM 39.9678 -83.0181 268° West 371 427 38,000  Level Indianapolis Center
06:37PM 39.9633 -83.1528 268° West 371 427 38,000  Level Indianapolis Center
06:38PM 39.9592 -83.2864 268° West 369 425 38,000  Level Indianapolis Center
06:39PM 39.9539 -83.4436 268° West 374 430 38,000  Level Indianapolis Center
06:40PM 39.9481 -83.5772 267° West 375 432 38,000  Level Indianapolis Center
06:41PM 39.9431 -83.7114 267° West 372 428 38,000  Level Indianapolis Center
06:42PM 39.9386 -83.8464 268° West 373 429 38,000  Level Indianapolis Center
06:44PM 39.9333 -83.9817 267° West 372 428 38,000  Level Indianapolis Center
06:45PM 39.9269 -84.1386 267° West 371 427 38,000  Level Indianapolis Center
06:46PM 39.9222 -84.2753 267° West 373 429 38,000  Level Indianapolis Center
06:47PM 39.9156 -84.4092 266° West 369 425 38,000  Level Indianapolis Center
06:48PM 39.9097 -84.5433 267° West 369 425 38,000  Level Indianapolis Center
06:49PM 39.9033 -84.6753 266° West 364 419 38,000  Level Indianapolis Center
06:50PM 39.8975 -84.8081 267° West 363 418 38,000  Level Indianapolis Center
06:51PM 39.8903 -84.9497 266° West 365 420 38,000  Level Indianapolis Center
06:52PM 39.8844 -85.0828 267° West 366 421 38,000  Level Indianapolis Center
06:53PM 39.8769 -85.2158 266° West 367 422 38,000  Level Indianapolis Center
06:54PM 39.8703 -85.3717 267° West 367 422 38,000  Level Indianapolis Center
06:55PM 39.8619 -85.5058 265° West 369 425 38,000  Level Indianapolis Center
06:56PM 39.8553 -85.6411 266° West 373 429 38,000  Level Indianapolis Center
06:57PM 39.8483 -85.7753 266° West 371 427 38,000  Level Indianapolis Center
06:58PM 39.8408 -85.9097 266° West 371 427 38,000  Level Indianapolis Center
06:59PM 39.8344 -86.0444 267° West 374 430 38,000  Level Indianapolis Center
07:00PM 39.8275 -86.1794 266° West 375 432 38,000  Level Indianapolis Center
07:01PM 39.8200 -86.3336 266° West 376 433 38,000  Level Indianapolis Center
07:02PM 39.8400 -86.4683 281° West 383 441 38,000  Level Indianapolis Center
07:03PM 39.8578 -86.6019 280° West 377 434 38,000  Level Indianapolis Center
07:04PM 39.8386 -86.7306 259° West 368 423 38,000 -300 Level Indianapolis Center
07:05PM 39.7906 -86.8731 246° West 369 425 37,400 -1,020 Descending Indianapolis Center
07:06PM 39.7494 -86.9967 247° West 371 427 36,000 -720 Descending Indianapolis Center
07:07PM 39.7075 -87.1225 247° West 376 433 36,000 -180 Level Indianapolis Center
07:08PM 39.6644 -87.2472 246° West 377 434 35,700 -720 Descending Indianapolis Center
07:09PM 39.6236 -87.3689 246° West 367 422 34,600 -1,020 Descending Indianapolis Center
07:10PM 39.5831 -87.4903 247° West 365 420 33,600 -960 Descending Indianapolis Center
07:11PM 39.5411 -87.6117 246° West 367 422 32,700 -1,020 Descending Indianapolis Center
07:12PM 39.4917 -87.7561 246° West 373 429 31,500 -1,080 Descending Indianapolis Center
07:13PM 39.4497 -87.8789 246° West 371 427 30,600 -1,320 Descending Indianapolis Center
07:14PM 39.4072 -88.0017 246° West 373 429 28,800 -1,500 Descending Indianapolis Center
07:15PM 39.3836 -88.0781 248° West 371 427 28,000 -1,140 Descending Kansas City Center
07:16PM 39.3508 -88.2056 252° West 372 428 26,900 -1,020 Descending Kansas City Center
07:17PM 39.3203 -88.3242 252° West 356 410 25,900 -1,080 Descending Kansas City Center
07:18PM 39.2831 -88.4644 251° West 347 399 24,700 -1,080 Descending Kansas City Center
07:19PM 39.2503 -88.5806 250° West 344 396 23,700 -1,020 Descending Kansas City Center
07:20PM 39.2225 -88.6850 251° West 335 386 22,700 -960 Descending Kansas City Center
07:21PM 39.1928 -88.7981 251° West 333 383 21,700 -960 Descending Kansas City Center
07:22PM 39.1622 -88.9069 250° West 327 376 20,700 -1,080 Descending Kansas City Center
07:23PM 39.1300 -89.0275 251° West 315 362 19,600 -1,080 Descending Kansas City Center
07:24PM 39.0986 -89.1431 251° West 317 365 18,500 -1,080 Descending Kansas City Center
07:25PM 39.0775 -89.1736 228° Southwest 314 361 17,700 -1,020 Descending FAA TRACON SMA TRACON (SMA)
07:26PM 39.0683 -89.2056 250° West 313 360 17,400 -900 Descending FAA TRACON SMA TRACON (SMA)
07:26PM 39.0619 -89.2389 256° West 310 357 17,100 -1,080 Descending FAA TRACON SMA TRACON (SMA)
07:26PM 39.0542 -89.2806 256° West 311 358 16,700 -1,080 Descending FAA TRACON SMA TRACON (SMA)
07:27PM 39.0450 -89.3122 250° West 309 356 16,400 -900 Descending FAA TRACON SMA TRACON (SMA)
07:27PM 39.0431 -89.3464 266° West 308 354 16,100 -1,080 Descending FAA TRACON SMA TRACON (SMA)
07:27PM 39.0400 -89.3872 265° West 300 345 15,700 -1,560 Descending FAA TRACON SMA TRACON (SMA)
07:28PM 39.0356 -89.4181 259° West 290 334 15,100 -1,800 Descending FAA TRACON SMA TRACON (SMA)
07:28PM 39.0342 -89.4500 267° West 289 333 14,500 -1,800 Descending FAA TRACON SMA TRACON (SMA)
07:28PM 39.0314 -89.4811 263° West 291 335 13,900 -2,040 Descending FAA TRACON SMA TRACON (SMA)
07:29PM 39.0308 -89.5217 269° West 290 334 13,200 -1,680 Descending FAA TRACON SMA TRACON (SMA)
07:29PM 39.0289 -89.5531 265° West 290 334 12,800 -1,200 Descending FAA TRACON SMA TRACON (SMA)
07:29PM 39.0303 -89.5861 273° West 293 337 12,400 -1,200 Descending FAA TRACON SMA TRACON (SMA)
07:30PM 39.0175 -89.6219 245° Southwest 290 334 12,000 -1,380 Descending FAA TRACON SMA TRACON (SMA)
07:30PM 39.0058 -89.6506 242° Southwest 292 336 11,500 -1,500 Descending FAA TRACON SMA TRACON (SMA)
07:30PM 38.9936 -89.6778 240° Southwest 289 333 11,000 -1,380 Descending FAA TRACON SMA TRACON (SMA)
07:31PM 38.9769 -89.7097 236° Southwest 280 322 10,600 -1,080 Descending FAA TRACON SMA TRACON (SMA)
07:31PM 38.9644 -89.7342 237° Southwest 268 308 10,300 -1,080 Descending FAA TRACON SMA TRACON (SMA)
07:31PM 38.9539 -89.7586 241° Southwest 259 298 9,900 -1,500 Descending FAA TRACON SMA TRACON (SMA)
07:32PM 38.9406 -89.7889 240° Southwest 253 291 9,300 -1,500 Descending FAA TRACON SMA TRACON (SMA)
07:32PM 38.9303 -89.8133 242° Southwest 252 290 8,900 -1,380 Descending FAA TRACON SMA TRACON (SMA)
07:32PM 38.9192 -89.8367 239° Southwest 250 288 8,400 -1,680 Descending FAA TRACON SMA TRACON (SMA)
07:33PM 38.9067 -89.8667 242° Southwest 247 284 7,800 -1,500 Descending FAA TRACON SMA TRACON (SMA)
07:33PM 38.8967 -89.8906 242° Southwest 248 285 7,400 -1,380 Descending FAA TRACON SMA TRACON (SMA)
07:33PM 38.8872 -89.9147 243° Southwest 247 284 6,900 -1,680 Descending FAA TRACON SMA TRACON (SMA)
07:34PM 38.8750 -89.9444 242° Southwest 244 281 6,300 -1,740 Descending FAA TRACON SMA TRACON (SMA)
07:34PM 38.8644 -89.9669 239° Southwest 242 278 5,800 -1,500 Descending FAA TRACON SMA TRACON (SMA)
07:34PM 38.8489 -89.9842 221° Southwest 242 278 5,300 -840 Descending FAA TRACON SMA TRACON (SMA)
07:35PM 38.8147 -90.0200 219° Southwest 229 264 5,000 -360 Descending FAA TRACON SMA TRACON (SMA)
07:35PM 38.8011 -90.0347 220° Southwest 212 244 5,000 -780 Level FAA TRACON SMA TRACON (SMA)
07:36PM 38.7839 -90.0522 218° Southwest 204 235 4,500 -1,200 Descending FAA TRACON SMA TRACON (SMA)
07:36PM 38.7703 -90.0658 218° Southwest 202 232 4,200 -900 Descending FAA TRACON SMA TRACON (SMA)
07:36PM 38.7561 -90.0792 216° Southwest 204 235 3,900 -1,080 Descending FAA TRACON SMA TRACON (SMA)
07:37PM 38.7414 -90.0925 215° Southwest 207 238 3,500 -600 Descending FAA TRACON SMA TRACON (SMA)
07:37PM 38.7244 -90.1083 216° Southwest 199 229 3,500 -180 Level FAA TRACON SMA TRACON (SMA)
07:37PM 38.7119 -90.1200 216° Southwest 186 214 3,400 -600 Descending FAA TRACON SMA TRACON (SMA)
07:38PM 38.6997 -90.1306 214° Southwest 172 198 3,100 -1,260 Descending FAA TRACON SMA TRACON (SMA)
07:38PM 38.6839 -90.1444 214° Southwest 176 203 2,600 -900 Descending FAA TRACON SMA TRACON (SMA)
07:38PM 38.6753 -90.1589 233° Southwest 181 208 2,500 -180 Descending FAA TRACON SMA TRACON (SMA)
07:39PM 38.6794 -90.1747 289° West 173 199 2,500 -300 Level FAA TRACON SMA TRACON (SMA)
07:39PM 38.6881 -90.1922 302° West 151 174 2,300 -600 Descending FAA TRACON SMA TRACON (SMA)
07:39PM 38.6947 -90.2053 303° West 146 168 2,100 -600 Descending FAA TRACON SMA TRACON (SMA)
07:40PM 38.7006 -90.2175 301° West 136 157 1,900 -780 Descending FAA TRACON SMA TRACON (SMA)
07:40PM 38.7078 -90.2319 303° West 124 143 1,600 -780 Descending FAA TRACON SMA TRACON (SMA)
07:40PM 38.7136 -90.2428 305° West 121 139 1,400 -600 Descending FAA TRACON SMA TRACON (SMA)
07:41PM 38.7189 -90.2550 299° West 124 143 1,200 -780 Descending FAA TRACON SMA TRACON (SMA)
07:41PM 38.7261 -90.2692 303° West 126 145 900 -780 Descending FAA TRACON SMA TRACON (SMA)
07:41PM 38.7319 -90.2811 302° West 126 145 700 -600 Descending FAA TRACON SMA TRACON (SMA)